Hauptseite
METAR-TAF:

METAR-TAF

Flughäfen :

Verkehrslandeplatz Mönchengladbach

Mönchengladbach, Deutschland

Breite: 51-13-49N, Länge: 006-30-16E, Höhe: 38 m

Beobachtung

Neuester Wetterbericht von vor 18 Minuten, um 12:20 UTC
Wind 5 kt aus Südwest, variierte zwischen Süd und Nord/Nordwest
Temperatur 19°C
Luftfeuchtigkeit 52%
Luftdruck 1025 hPa
Sichtweite 10 km oder mehr
Aufgelockert bewölkt in der Höhe von 4800 ft

METAR: EDLN 061220Z 23005KT 190V340 9999 SCT048 19/09 Q1025

Zeit: 14:38 (12:38 UTC)

Prognose

Neuester Wetterbericht von vor 1 Stunde und 38 Minuten, um 11:00 UTC
Gültige Prognose vom 06 um 12 UTC bis 06 um 21 UTC
Wind 8 kt aus Nordwest
Sichtweite 10 km oder mehr
Aufgelockert bewölkt in der Höhe von 4000 ft
Übergehend zu
vom 06 um 18 UTC bis 06 um 21 UTC
Wind 5 kt aus West/Südwest

TAF: EDLN 061100Z 0612/0621 31008KT 9999 SCT040 BECMG 0618/0621 25005KT

Wetterbeobachtungen und Prognosen von mehr als 4000 Flughäfen (METAR und TAF Bericht).

Die verfügbaren Stationen werden durch gelbe und rote Markierungen auf der Karte dargestellt.

Führen Sie die Maus auf sie, um den Namen der Station zu sehen.

Darauf klicken, um die Beobachtung von Wetterbeobachtungen und Prognosen zu sehen.

Um die Karte zu ändern : klicken Sie auf den grünen Tasten mit einem schwarzen Kreuz Zum Vergrößern, auf den grünen Button mit einem Gedankenstrich zu verkleinern, oder auf die grünen Pfeile für benachbarte Karten.


METAR-TAF: